createdAt,value
2017-05-04T00:07:35.842Z,20.64
2017-05-04T00:07:38.453Z,20.64
2017-05-04T00:08:10.233Z,20.63
2017-05-04T00:09:13.125Z,20.63
2017-05-04T00:10:13.182Z,20.63
2017-05-04T00:11:12.935Z,20.64
2017-05-04T00:12:12.036Z,20.64
2017-05-04T00:13:11.958Z,20.63
2017-05-04T00:14:12.223Z,20.64
2017-05-04T00:15:13.022Z,20.63
2017-05-04T00:16:12.208Z,20.63
2017-05-04T00:17:15.293Z,20.62
2017-05-04T00:18:13.182Z,20.66
2017-05-04T00:19:12.347Z,20.63
2017-05-04T00:20:13.117Z,20.63
2017-05-04T00:21:12.104Z,20.63
2017-05-04T00:22:12.402Z,20.63
2017-05-04T00:23:13.031Z,20.62
2017-05-04T00:24:12.238Z,20.63
2017-05-04T00:25:13.681Z,20.64
2017-05-04T00:26:12.384Z,20.63
2017-05-04T00:27:13.839Z,20.63
2017-05-04T00:28:11.929Z,20.63
2017-05-04T00:29:13.304Z,20.64
2017-05-04T00:30:13.346Z,20.64
2017-05-04T00:31:13.360Z,20.63
2017-05-04T00:32:12.428Z,20.63
2017-05-04T00:33:10.928Z,20.62
2017-05-04T00:34:12.416Z,20.62
2017-05-04T00:35:12.798Z,20.62
2017-05-04T00:36:15.745Z,20.62
2017-05-04T00:37:12.669Z,20.65
2017-05-04T00:38:11.876Z,20.63
2017-05-04T00:39:12.757Z,20.62
2017-05-04T00:40:13.432Z,20.63
2017-05-04T00:41:10.521Z,20.62
2017-05-04T00:42:11.886Z,20.63
2017-05-04T00:43:13.831Z,20.62
2017-05-04T00:44:12.827Z,20.62
2017-05-04T00:45:12.886Z,20.61
2017-05-04T00:46:10.082Z,20.61
2017-05-04T00:47:12.589Z,20.62
2017-05-04T00:48:12.396Z,20.61
2017-05-04T00:49:12.600Z,20.62
2017-05-04T00:50:12.392Z,20.62
2017-05-04T00:51:13.951Z,20.61
2017-05-04T00:52:13.887Z,20.62
2017-05-04T00:53:11.990Z,20.62
2017-05-04T00:54:12.788Z,20.64
2017-05-04T00:55:11.896Z,21.15
2017-05-04T00:56:09.201Z,21.20
2017-05-04T00:57:09.703Z,21.23
2017-05-04T00:58:11.837Z,21.23
2017-05-04T00:59:12.821Z,20.71
2017-05-04T01:00:13.496Z,20.65
2017-05-04T01:01:12.760Z,20.64
2017-05-04T01:02:12.409Z,20.66
2017-05-04T01:03:13.291Z,20.65
2017-05-04T01:04:12.876Z,21.15
2017-05-04T01:05:12.033Z,21.21
2017-05-04T01:06:12.398Z,21.23
2017-05-04T01:07:12.644Z,21.23
2017-05-04T01:08:11.666Z,21.24
2017-05-04T01:09:14.491Z,21.24
2017-05-04T01:10:13.174Z,21.24
2017-05-04T01:11:12.388Z,20.72
2017-05-04T01:12:12.608Z,20.66
2017-05-04T01:13:11.672Z,20.64
2017-05-04T01:14:12.731Z,20.63
2017-05-04T01:15:10.751Z,20.62
2017-05-04T01:16:12.382Z,20.64
2017-05-04T01:17:12.638Z,20.62
2017-05-04T01:18:12.410Z,20.61
2017-05-04T01:19:14.291Z,20.61
2017-05-04T01:20:13.134Z,20.63
2017-05-04T01:21:11.248Z,20.60
2017-05-04T01:22:12.857Z,21.15
2017-05-04T01:23:12.020Z,20.87
2017-05-04T01:24:10.821Z,20.67
2017-05-04T01:25:12.782Z,20.64
2017-05-04T01:26:12.235Z,20.62
2017-05-04T01:27:13.933Z,20.62
2017-05-04T01:28:13.286Z,20.61
2017-05-04T01:29:13.135Z,20.61
2017-05-04T01:30:13.562Z,20.61
2017-05-04T01:31:16.420Z,20.60
2017-05-04T01:32:10.731Z,20.60
2017-05-04T01:33:13.480Z,20.60
2017-05-04T01:34:12.678Z,20.61
2017-05-04T01:35:12.064Z,20.66
2017-05-04T01:36:12.241Z,20.60
2017-05-04T01:37:12.247Z,20.60
2017-05-04T01:38:13.234Z,20.60
2017-05-04T01:39:12.991Z,20.60
2017-05-04T01:40:12.220Z,20.60
2017-05-04T01:41:12.356Z,20.60
2017-05-04T01:42:15.110Z,20.60
2017-05-04T01:43:12.218Z,20.61
2017-05-04T01:44:12.953Z,20.67
2017-05-04T01:45:13.813Z,20.60
2017-05-04T01:46:14.860Z,20.60
2017-05-04T01:47:12.597Z,20.59
2017-05-04T01:48:12.635Z,20.60
2017-05-04T01:49:12.371Z,20.61
2017-05-04T01:50:14.056Z,20.59
2017-05-04T01:51:12.247Z,20.60
2017-05-04T01:52:12.411Z,20.59
2017-05-04T01:53:13.321Z,20.59
2017-05-04T01:54:12.650Z,20.60
2017-05-04T01:55:12.294Z,20.63
2017-05-04T01:56:13.370Z,20.59
2017-05-04T01:57:15.220Z,20.59
2017-05-04T01:58:13.031Z,20.59
2017-05-04T01:59:12.631Z,20.60
2017-05-04T02:00:12.272Z,20.65
2017-05-04T02:01:13.168Z,20.60
2017-05-04T02:02:12.238Z,20.59
2017-05-04T02:03:12.551Z,20.59
2017-05-04T02:04:12.827Z,20.59
2017-05-04T02:05:13.404Z,20.59
2017-05-04T02:06:12.445Z,20.59
2017-05-04T02:07:11.204Z,20.58
2017-05-04T02:08:13.487Z,21.13
2017-05-04T02:09:10.261Z,21.17
2017-05-04T02:10:11.766Z,21.19
2017-05-04T02:11:12.892Z,21.19
2017-05-04T02:12:12.546Z,20.84
2017-05-04T02:13:12.869Z,20.67
2017-05-04T02:14:12.202Z,20.63
2017-05-04T02:15:12.253Z,20.61
2017-05-04T02:16:12.923Z,20.65
2017-05-04T02:17:12.395Z,20.61
2017-05-04T02:18:13.039Z,21.12
2017-05-04T02:19:09.795Z,21.17
2017-05-04T02:20:12.391Z,21.17
2017-05-04T02:21:10.584Z,21.20
2017-05-04T02:22:10.681Z,21.20
2017-05-04T02:23:10.150Z,21.21
2017-05-04T02:24:13.294Z,21.21
2017-05-04T02:25:12.405Z,21.21
2017-05-04T02:26:12.689Z,21.21
2017-05-04T02:27:11.984Z,20.74
2017-05-04T02:28:11.097Z,20.63
2017-05-04T02:29:12.361Z,21.14
2017-05-04T02:30:14.184Z,21.19
2017-05-04T02:31:13.940Z,21.19
2017-05-04T02:32:10.728Z,21.20
2017-05-04T02:33:13.523Z,21.22
2017-05-04T02:34:14.159Z,21.22
2017-05-04T02:35:13.380Z,20.74
2017-05-04T02:36:12.061Z,20.64
2017-05-04T02:37:12.228Z,20.60
2017-05-04T02:38:14.140Z,20.59
2017-05-04T02:39:12.772Z,20.59
2017-05-04T02:40:12.038Z,20.58
2017-05-04T02:41:12.554Z,20.59
2017-05-04T02:42:11.614Z,20.59
2017-05-04T02:43:13.370Z,20.58
2017-05-04T02:44:12.425Z,20.58
2017-05-04T02:45:12.760Z,20.58
2017-05-04T02:46:11.861Z,20.58
2017-05-04T02:47:12.680Z,20.58
2017-05-04T02:48:12.574Z,20.58
2017-05-04T02:49:11.720Z,20.57
2017-05-04T02:50:12.626Z,20.57
2017-05-04T02:51:09.306Z,20.56
2017-05-04T02:52:15.371Z,20.57
2017-05-04T02:53:11.159Z,20.58
2017-05-04T02:54:13.223Z,21.11
2017-05-04T02:55:11.465Z,20.62
2017-05-04T02:56:13.340Z,20.61
2017-05-04T02:57:13.197Z,20.59
2017-05-04T02:58:12.221Z,20.59
2017-05-04T02:59:13.092Z,20.65
2017-05-04T03:00:12.277Z,20.59
2017-05-04T03:01:11.074Z,20.58
2017-05-04T03:02:12.810Z,20.65
2017-05-04T03:03:12.439Z,20.64
2017-05-04T03:04:13.271Z,20.58
2017-05-04T03:05:12.515Z,20.59
2017-05-04T03:06:11.162Z,20.58
2017-05-04T03:07:12.590Z,20.58
2017-05-04T03:08:12.093Z,20.65
2017-05-04T03:09:11.114Z,21.11
2017-05-04T03:10:12.213Z,21.15
2017-05-04T03:11:12.855Z,21.18
2017-05-04T03:12:12.807Z,21.19
2017-05-04T03:13:12.125Z,21.21
2017-05-04T03:14:12.240Z,21.18
2017-05-04T03:15:13.261Z,21.19
2017-05-04T03:16:13.219Z,21.20
2017-05-04T03:17:13.602Z,21.20
2017-05-04T03:18:11.594Z,21.21
2017-05-04T03:19:11.726Z,21.21
2017-05-04T03:20:12.590Z,21.20
2017-05-04T03:21:12.316Z,21.19
2017-05-04T03:22:10.776Z,21.20
2017-05-04T03:23:12.879Z,21.20
2017-05-04T03:24:12.391Z,21.20
2017-05-04T03:25:13.047Z,20.66
2017-05-04T03:26:12.605Z,20.65
2017-05-04T03:27:11.823Z,20.59
2017-05-04T03:28:12.692Z,20.58
2017-05-04T03:29:10.626Z,20.57
2017-05-04T03:30:12.605Z,20.56
2017-05-04T03:31:10.518Z,20.56
2017-05-04T03:32:13.149Z,20.57
2017-05-04T03:33:12.247Z,20.56
2017-05-04T03:34:14.457Z,20.57
2017-05-04T03:35:12.592Z,20.55
2017-05-04T03:36:14.067Z,20.56
2017-05-04T03:37:13.697Z,20.56
2017-05-04T03:38:11.936Z,20.56
2017-05-04T03:39:12.900Z,20.55
2017-05-04T03:40:12.619Z,20.56
2017-05-04T03:41:12.465Z,20.55
2017-05-04T03:42:13.338Z,20.55
2017-05-04T03:43:12.463Z,20.55
2017-05-04T03:44:14.160Z,20.55
2017-05-04T03:45:13.135Z,20.56
2017-05-04T03:46:13.055Z,20.57
2017-05-04T03:47:12.216Z,21.08
2017-05-04T03:48:12.615Z,21.13
2017-05-04T03:49:11.538Z,21.15
2017-05-04T03:50:13.326Z,21.15
2017-05-04T03:51:11.212Z,21.17
2017-05-04T03:52:13.273Z,20.64
2017-05-04T03:53:10.873Z,20.59
2017-05-04T03:54:12.515Z,20.58
2017-05-04T03:55:12.633Z,20.56
2017-05-04T03:56:11.713Z,20.56
2017-05-04T03:57:11.887Z,20.56
2017-05-04T03:58:12.965Z,20.56
2017-05-04T03:59:14.695Z,20.55
2017-05-04T04:00:11.960Z,20.55
2017-05-04T04:01:12.875Z,20.54
2017-05-04T04:02:11.014Z,20.53
2017-05-04T04:03:13.055Z,21.07
2017-05-04T04:04:12.681Z,20.94
2017-05-04T04:05:11.753Z,20.61
2017-05-04T04:06:12.061Z,20.58
2017-05-04T04:07:13.162Z,20.56
2017-05-04T04:08:13.435Z,20.55
2017-05-04T04:09:12.603Z,20.55
2017-05-04T04:10:12.563Z,20.54
2017-05-04T04:11:12.382Z,20.60
2017-05-04T04:12:13.065Z,20.60
2017-05-04T04:13:13.845Z,20.54
2017-05-04T04:14:10.787Z,20.54
2017-05-04T04:15:12.664Z,20.54
2017-05-04T04:16:12.587Z,20.54
2017-05-04T04:17:12.811Z,20.54
2017-05-04T04:18:12.017Z,20.54
2017-05-04T04:19:12.095Z,20.54
2017-05-04T04:20:13.964Z,20.53
2017-05-04T04:21:14.547Z,20.53
2017-05-04T04:22:13.379Z,20.56
2017-05-04T04:23:14.346Z,20.53
2017-05-04T04:24:14.094Z,20.53
2017-05-04T04:25:14.902Z,20.53
2017-05-04T04:26:12.836Z,20.54
2017-05-04T04:27:11.999Z,20.54
2017-05-04T04:28:13.100Z,20.53
2017-05-04T04:29:12.582Z,20.54
2017-05-04T04:30:11.860Z,20.54
2017-05-04T04:31:09.856Z,20.53
2017-05-04T04:32:12.890Z,20.60
2017-05-04T04:33:12.832Z,20.55
2017-05-04T04:34:12.509Z,20.53
2017-05-04T04:35:13.371Z,20.54
2017-05-04T04:36:12.422Z,20.53
2017-05-04T04:37:14.596Z,20.53
2017-05-04T04:38:13.468Z,20.53
2017-05-04T04:39:12.381Z,20.54
2017-05-04T04:40:12.243Z,20.52
2017-05-04T04:41:13.264Z,20.55
2017-05-04T04:42:13.630Z,20.52
2017-05-04T04:43:12.485Z,20.52
2017-05-04T04:44:13.357Z,20.52
2017-05-04T04:45:13.120Z,20.54
2017-05-04T04:46:12.725Z,20.57
2017-05-04T04:47:12.530Z,20.53
2017-05-04T04:48:12.710Z,20.53
2017-05-04T04:49:13.974Z,20.53
2017-05-04T04:50:11.040Z,20.52
2017-05-04T04:51:12.900Z,20.68
2017-05-04T04:52:13.623Z,20.57
2017-05-04T04:53:11.714Z,20.55
2017-05-04T04:54:12.595Z,20.55
2017-05-04T04:55:12.453Z,20.53
2017-05-04T04:56:14.384Z,20.51
2017-05-04T04:57:12.562Z,20.53
2017-05-04T04:58:11.733Z,20.53
2017-05-04T04:59:12.906Z,20.53
2017-05-04T05:00:12.015Z,20.53
2017-05-04T05:01:12.870Z,20.53
2017-05-04T05:02:12.909Z,20.53
2017-05-04T05:03:12.620Z,20.56
2017-05-04T05:04:11.442Z,20.52
2017-05-04T05:05:11.652Z,20.52
2017-05-04T05:06:12.229Z,20.55
2017-05-04T05:07:12.438Z,20.52
2017-05-04T05:08:13.195Z,20.52
2017-05-04T05:09:12.434Z,20.52
2017-05-04T05:10:12.766Z,20.53
2017-05-04T05:11:12.628Z,20.52
2017-05-04T05:12:11.689Z,20.52
2017-05-04T05:13:10.866Z,20.51
2017-05-04T05:14:12.821Z,20.52
2017-05-04T05:15:12.498Z,20.54
2017-05-04T05:16:13.145Z,20.57
2017-05-04T05:17:12.559Z,20.51
2017-05-04T05:18:13.394Z,20.51
2017-05-04T05:19:12.640Z,20.50
2017-05-04T05:20:12.386Z,20.50
2017-05-04T05:21:13.349Z,20.50
2017-05-04T05:22:13.115Z,20.50
2017-05-04T05:23:12.838Z,20.55
2017-05-04T05:24:12.565Z,20.49
2017-05-04T05:25:13.885Z,20.50
2017-05-04T05:26:12.736Z,20.49
2017-05-04T05:27:15.395Z,20.48
2017-05-04T05:28:13.966Z,20.49
2017-05-04T05:29:12.871Z,20.49
2017-05-04T05:30:12.208Z,20.48
2017-05-04T05:31:13.009Z,20.48
2017-05-04T05:32:12.113Z,20.49
2017-05-04T05:33:13.883Z,20.48
2017-05-04T05:34:12.600Z,20.48
2017-05-04T05:35:11.846Z,20.48
2017-05-04T05:36:12.631Z,20.48
2017-05-04T05:37:12.686Z,20.48
2017-05-04T05:38:12.428Z,20.48
2017-05-04T05:39:13.175Z,20.47
2017-05-04T05:40:13.639Z,20.49
2017-05-04T05:41:11.816Z,20.48
2017-05-04T05:42:13.888Z,20.48
2017-05-04T05:43:12.614Z,20.48
2017-05-04T05:44:13.720Z,20.48
2017-05-04T05:45:12.826Z,20.47
2017-05-04T05:46:12.897Z,20.47
2017-05-04T05:47:09.095Z,20.46
2017-05-04T05:48:12.436Z,20.47
2017-05-04T05:49:14.405Z,20.47
2017-05-04T05:50:13.216Z,20.46
2017-05-04T05:51:12.774Z,20.50
2017-05-04T05:52:13.873Z,20.47
2017-05-04T05:53:10.778Z,20.46
2017-05-04T05:54:12.209Z,20.47
2017-05-04T05:55:12.807Z,20.47
2017-05-04T05:56:12.722Z,20.47
2017-05-04T05:57:11.810Z,20.47
2017-05-04T05:58:12.564Z,20.51
2017-05-04T05:59:12.353Z,20.51
2017-05-04T06:00:11.170Z,20.99
2017-05-04T06:01:11.076Z,21.05
2017-05-04T06:02:12.613Z,21.07
2017-05-04T06:03:11.855Z,21.10
2017-05-04T06:04:12.058Z,21.10
2017-05-04T06:05:10.753Z,21.12
2017-05-04T06:06:12.853Z,21.13
2017-05-04T06:07:11.854Z,21.14
2017-05-04T06:08:12.649Z,21.14
2017-05-04T06:09:11.839Z,21.15
2017-05-04T06:10:13.734Z,21.14
2017-05-04T06:11:10.457Z,20.62
2017-05-04T06:12:12.414Z,21.10
2017-05-04T06:13:12.645Z,21.14
2017-05-04T06:14:12.384Z,21.14
2017-05-04T06:15:13.270Z,21.14
2017-05-04T06:16:12.406Z,21.16
2017-05-04T06:17:12.759Z,21.16
2017-05-04T06:18:12.713Z,21.16
2017-05-04T06:19:11.611Z,21.17
2017-05-04T06:20:12.224Z,21.17
2017-05-04T06:21:12.390Z,21.18
2017-05-04T06:22:12.717Z,21.18
2017-05-04T06:23:12.673Z,20.64
2017-05-04T06:24:11.997Z,20.57
2017-05-04T06:25:12.131Z,20.49
2017-05-04T06:26:09.803Z,20.42
2017-05-04T06:27:12.461Z,20.36
2017-05-04T06:28:12.833Z,20.25
2017-05-04T06:29:12.024Z,20.24
2017-05-04T06:30:13.155Z,20.26
2017-05-04T06:31:11.987Z,20.27
2017-05-04T06:32:12.575Z,20.34
2017-05-04T06:33:11.797Z,20.31
2017-05-04T06:34:12.014Z,20.32
2017-05-04T06:35:12.092Z,20.33
2017-05-04T06:36:14.715Z,20.34
2017-05-04T06:37:12.415Z,20.36
2017-05-04T06:38:13.164Z,20.37
2017-05-04T06:39:12.403Z,20.38
2017-05-04T06:40:12.624Z,20.39
2017-05-04T06:41:13.682Z,20.40
2017-05-04T06:42:12.431Z,20.44
2017-05-04T06:43:14.113Z,20.93
2017-05-04T06:44:12.876Z,20.99
2017-05-04T06:45:13.386Z,21.04
2017-05-04T06:46:12.565Z,21.05
2017-05-04T06:47:13.494Z,21.07
2017-05-04T06:48:12.205Z,20.91
2017-05-04T06:49:13.884Z,20.54
2017-05-04T06:50:09.381Z,20.49
2017-05-04T06:51:11.969Z,20.49
2017-05-04T06:52:11.952Z,20.47
2017-05-04T06:53:17.564Z,20.47
2017-05-04T06:54:13.438Z,20.47
2017-05-04T06:55:11.148Z,20.47
2017-05-04T06:56:15.053Z,21.00
2017-05-04T06:57:12.211Z,20.53
2017-05-04T06:58:13.842Z,20.50
2017-05-04T06:59:11.891Z,20.49
2017-05-04T07:00:12.794Z,20.48
2017-05-04T07:01:12.510Z,20.48
2017-05-04T07:02:13.390Z,20.47
2017-05-04T07:03:12.586Z,20.48
2017-05-04T07:04:11.746Z,20.48
2017-05-04T07:05:13.659Z,20.48
2017-05-04T07:06:13.447Z,20.47
2017-05-04T07:07:13.207Z,20.56
2017-05-04T07:08:12.207Z,20.48
2017-05-04T07:09:14.105Z,20.48
2017-05-04T07:10:12.257Z,20.48
2017-05-04T07:11:13.330Z,20.47
2017-05-04T07:12:12.898Z,20.55
2017-05-04T07:13:10.807Z,20.48
2017-05-04T07:14:13.642Z,20.48
2017-05-04T07:15:12.004Z,20.50
2017-05-04T07:16:12.123Z,20.50
2017-05-04T07:17:11.416Z,20.49
2017-05-04T07:18:11.983Z,20.51
2017-05-04T07:19:12.216Z,20.52
2017-05-04T07:20:12.786Z,20.53
2017-05-04T07:21:12.441Z,20.57
2017-05-04T07:22:13.133Z,20.57
2017-05-04T07:23:12.332Z,20.53
2017-05-04T07:24:13.114Z,20.53
2017-05-04T07:25:10.879Z,20.55
2017-05-04T07:26:12.809Z,21.10
2017-05-04T07:27:12.425Z,21.15
2017-05-04T07:28:12.573Z,21.16
2017-05-04T07:29:10.288Z,21.18
2017-05-04T07:30:13.318Z,21.17
2017-05-04T07:31:12.901Z,21.19
2017-05-04T07:32:12.343Z,21.21
2017-05-04T07:33:11.109Z,20.69
2017-05-04T07:34:12.625Z,20.65
2017-05-04T07:35:11.739Z,20.63
2017-05-04T07:36:10.397Z,20.63
2017-05-04T07:37:12.625Z,21.19
2017-05-04T07:38:11.617Z,21.23
2017-05-04T07:39:12.399Z,21.26
2017-05-04T07:40:13.232Z,21.28
2017-05-04T07:41:12.586Z,21.28
2017-05-04T07:42:12.161Z,21.28
2017-05-04T07:43:10.967Z,21.28
2017-05-04T07:44:12.622Z,21.28
2017-05-04T07:45:13.458Z,21.30
2017-05-04T07:46:13.215Z,21.30
2017-05-04T07:47:12.501Z,21.31
2017-05-04T07:48:14.817Z,21.32
2017-05-04T07:49:12.873Z,21.30
2017-05-04T07:50:12.938Z,21.30
2017-05-04T07:51:12.241Z,20.71
2017-05-04T07:52:13.089Z,20.60
2017-05-04T07:53:13.347Z,20.53
2017-05-04T07:54:12.899Z,20.51
2017-05-04T07:55:12.026Z,20.35
2017-05-04T07:56:12.135Z,20.31
2017-05-04T07:57:12.744Z,20.27
2017-05-04T07:58:11.982Z,20.18
2017-05-04T07:59:12.245Z,20.16
2017-05-04T08:00:13.196Z,20.20
2017-05-04T08:01:12.849Z,20.25
2017-05-04T08:02:12.053Z,20.29
2017-05-04T08:03:12.235Z,20.33
2017-05-04T08:04:11.151Z,20.35
2017-05-04T08:05:12.366Z,20.92
2017-05-04T08:06:14.227Z,21.00
2017-05-04T08:07:13.093Z,21.07
2017-05-04T08:08:12.573Z,21.11
2017-05-04T08:09:12.444Z,20.68
2017-05-04T08:10:13.321Z,20.62
2017-05-04T08:11:14.078Z,20.67
2017-05-04T08:12:12.378Z,20.63
2017-05-04T08:13:12.397Z,20.64
2017-05-04T08:14:21.635Z,20.68
2017-05-04T08:15:12.409Z,21.21
2017-05-04T08:16:13.245Z,20.80
2017-05-04T08:17:13.455Z,20.73
2017-05-04T08:18:13.183Z,20.75
2017-05-04T08:19:12.417Z,20.76
2017-05-04T08:20:13.233Z,20.79
2017-05-04T08:21:12.384Z,20.82
2017-05-04T08:22:13.241Z,20.84
2017-05-04T08:23:12.876Z,20.87
2017-05-04T08:24:12.744Z,20.89
2017-05-04T08:25:12.549Z,20.90
2017-05-04T08:26:12.633Z,20.92
2017-05-04T08:27:11.609Z,20.94
2017-05-04T08:28:13.413Z,20.97
2017-05-04T08:29:12.438Z,20.99
2017-05-04T08:30:12.634Z,21.01
2017-05-04T08:31:11.739Z,21.02
2017-05-04T08:32:12.568Z,21.02
2017-05-04T08:33:12.386Z,21.04
2017-05-04T08:34:13.624Z,21.04
2017-05-04T08:35:12.276Z,21.09
2017-05-04T08:36:12.233Z,21.07
2017-05-04T08:37:12.142Z,21.09
2017-05-04T08:38:12.227Z,21.11
2017-05-04T08:39:12.610Z,21.16
2017-05-04T08:40:12.316Z,21.17
2017-05-04T08:41:15.164Z,21.15
2017-05-04T08:42:12.998Z,21.17
2017-05-04T08:43:12.565Z,21.18
2017-05-04T08:44:11.835Z,21.19
2017-05-04T08:45:12.279Z,21.20
2017-05-04T08:46:13.123Z,21.21
2017-05-04T08:47:12.811Z,21.23
2017-05-04T08:48:12.012Z,21.24
2017-05-04T08:49:13.587Z,21.26
2017-05-04T08:50:11.770Z,21.26
2017-05-04T08:51:13.370Z,21.27
2017-05-04T08:52:13.336Z,21.27
2017-05-04T08:53:10.921Z,21.27
2017-05-04T08:54:12.630Z,21.28
2017-05-04T08:55:12.551Z,21.28
2017-05-04T08:56:13.367Z,21.30
2017-05-04T08:57:14.102Z,21.32
2017-05-04T08:58:13.867Z,21.32
2017-05-04T08:59:12.029Z,21.32
2017-05-04T09:00:12.231Z,21.32
2017-05-04T09:01:13.246Z,21.32
2017-05-04T09:02:12.543Z,21.34
2017-05-04T09:03:12.880Z,21.34
2017-05-04T09:04:12.035Z,21.34
2017-05-04T09:05:12.221Z,21.35
2017-05-04T09:06:13.047Z,21.34
2017-05-04T09:07:12.828Z,21.35
2017-05-04T09:08:12.593Z,21.36
2017-05-04T09:09:20.231Z,21.33
2017-05-04T09:10:12.908Z,21.32
2017-05-04T09:11:12.226Z,21.34
2017-05-04T09:12:13.134Z,21.33
2017-05-04T09:13:11.177Z,21.33
2017-05-04T09:14:12.573Z,21.33
2017-05-04T09:15:12.730Z,21.33
2017-05-04T09:16:12.551Z,21.33
2017-05-04T09:17:13.474Z,21.34
2017-05-04T09:18:12.646Z,21.33
2017-05-04T09:19:10.636Z,21.31
2017-05-04T09:20:10.833Z,21.85
2017-05-04T09:21:12.575Z,21.38
2017-05-04T09:22:14.678Z,21.36
2017-05-04T09:23:11.998Z,21.34
2017-05-04T09:24:12.864Z,21.34
2017-05-04T09:25:12.767Z,21.37
2017-05-04T09:26:11.949Z,21.33
2017-05-04T09:27:12.425Z,21.34
2017-05-04T09:28:13.218Z,21.34
2017-05-04T09:29:12.299Z,21.35
2017-05-04T09:30:13.069Z,21.35
2017-05-04T09:31:10.722Z,21.35
2017-05-04T09:32:12.204Z,21.37
2017-05-04T09:33:12.644Z,21.37
2017-05-04T09:34:12.420Z,21.37
2017-05-04T09:35:12.539Z,21.38
2017-05-04T09:36:13.287Z,21.39
2017-05-04T09:37:09.864Z,21.38
2017-05-04T09:38:13.909Z,21.40
2017-05-04T09:39:10.868Z,21.43
2017-05-04T09:40:12.492Z,21.48
2017-05-04T09:41:14.416Z,21.45
2017-05-04T09:42:12.408Z,21.47
2017-05-04T09:43:13.402Z,21.47
2017-05-04T09:44:13.099Z,21.45
2017-05-04T09:45:12.522Z,21.45
2017-05-04T09:46:12.597Z,21.45
2017-05-04T09:47:11.731Z,21.44
2017-05-04T09:48:11.918Z,21.43
2017-05-04T09:49:12.346Z,21.41
2017-05-04T09:50:10.824Z,21.40
2017-05-04T09:51:13.719Z,21.39
2017-05-04T09:52:14.016Z,21.37
2017-05-04T09:53:12.219Z,21.35
2017-05-04T09:54:13.863Z,21.35
2017-05-04T09:55:12.791Z,21.34
2017-05-04T09:56:12.715Z,21.33
2017-05-04T09:57:13.768Z,21.34
2017-05-04T09:58:12.829Z,21.41
2017-05-04T09:59:13.061Z,21.47
2017-05-04T10:00:12.248Z,21.40
2017-05-04T10:01:10.248Z,21.37
2017-05-04T10:02:12.441Z,21.37
2017-05-04T10:03:12.503Z,21.37
2017-05-04T10:04:12.809Z,21.35
2017-05-04T10:05:12.597Z,21.34
2017-05-04T10:06:12.220Z,21.33
2017-05-04T10:07:12.808Z,21.31
2017-05-04T10:08:12.596Z,21.30
2017-05-04T10:09:12.313Z,21.33
2017-05-04T10:10:13.079Z,21.27
2017-05-04T10:11:12.565Z,21.31
2017-05-04T10:12:09.970Z,21.24
2017-05-04T10:13:12.728Z,21.22
2017-05-04T10:14:11.947Z,21.21
2017-05-04T10:15:13.786Z,21.20
2017-05-04T10:16:12.835Z,21.18
2017-05-04T10:17:12.614Z,21.17
2017-05-04T10:18:12.256Z,21.68
2017-05-04T10:19:13.937Z,21.71
2017-05-04T10:20:12.118Z,21.72
2017-05-04T10:21:13.291Z,21.73
2017-05-04T10:22:12.383Z,21.72
2017-05-04T10:23:13.099Z,21.19
2017-05-04T10:24:12.882Z,21.12
2017-05-04T10:25:12.598Z,21.08
2017-05-04T10:26:13.557Z,21.07
2017-05-04T10:27:13.314Z,21.04
2017-05-04T10:28:13.086Z,21.02
2017-05-04T10:29:12.567Z,21.54
2017-05-04T10:30:12.568Z,21.05
2017-05-04T10:31:11.749Z,21.00
2017-05-04T10:32:11.853Z,20.97
2017-05-04T10:33:12.604Z,20.98
2017-05-04T10:34:13.214Z,20.94
2017-05-04T10:35:13.786Z,20.92
2017-05-04T10:36:13.437Z,20.91
2017-05-04T10:37:13.315Z,20.90
2017-05-04T10:38:12.836Z,20.89
2017-05-04T10:39:12.600Z,20.89
2017-05-04T10:40:12.456Z,20.94
2017-05-04T10:41:12.411Z,20.88
2017-05-04T10:42:12.674Z,20.87
2017-05-04T10:43:13.433Z,20.86
2017-05-04T10:44:13.576Z,20.86
2017-05-04T10:45:11.754Z,20.86
2017-05-04T10:46:12.835Z,20.86
2017-05-04T10:47:11.983Z,20.85
2017-05-04T10:48:12.786Z,20.87
2017-05-04T10:49:12.356Z,21.37
2017-05-04T10:50:13.177Z,21.41
2017-05-04T10:51:13.864Z,21.42
2017-05-04T10:52:13.005Z,21.07
2017-05-04T10:53:12.493Z,20.89
2017-05-04T10:54:11.636Z,20.83
2017-05-04T10:55:12.281Z,20.82
2017-05-04T10:56:12.471Z,20.80
2017-05-04T10:57:13.909Z,20.79
2017-05-04T10:58:12.522Z,20.77
2017-05-04T10:59:12.823Z,20.84
2017-05-04T11:00:12.689Z,20.76
2017-05-04T11:01:12.350Z,20.79
2017-05-04T11:02:12.623Z,20.75
2017-05-04T11:03:12.735Z,20.75
2017-05-04T11:04:12.551Z,20.74
2017-05-04T11:05:13.194Z,20.73
2017-05-04T11:06:13.907Z,20.73
2017-05-04T11:07:12.243Z,20.73
2017-05-04T11:08:13.334Z,20.73
2017-05-04T11:09:12.584Z,20.72
2017-05-04T11:10:11.836Z,20.71
2017-05-04T11:11:12.621Z,20.71
2017-05-04T11:12:13.364Z,20.70
2017-05-04T11:13:11.131Z,20.69
2017-05-04T11:14:14.363Z,20.69
2017-05-04T11:15:13.168Z,20.72
2017-05-04T11:16:12.808Z,20.73
2017-05-04T11:17:12.212Z,20.68
2017-05-04T11:18:12.433Z,20.68
2017-05-04T11:19:13.184Z,20.67
2017-05-04T11:20:13.125Z,20.66
2017-05-04T11:21:12.317Z,20.66
2017-05-04T11:22:13.035Z,20.71
2017-05-04T11:23:13.223Z,20.65
2017-05-04T11:24:12.819Z,20.69
2017-05-04T11:25:09.108Z,20.65
2017-05-04T11:26:13.508Z,20.65
2017-05-04T11:27:13.284Z,20.64
2017-05-04T11:28:12.413Z,20.65
2017-05-04T11:29:15.225Z,20.64
2017-05-04T11:30:11.156Z,20.62
2017-05-04T11:31:13.324Z,21.16
2017-05-04T11:32:12.625Z,21.21
2017-05-04T11:33:12.318Z,21.23
2017-05-04T11:34:12.836Z,21.24
2017-05-04T11:35:12.745Z,21.24
2017-05-04T11:36:12.604Z,20.72
2017-05-04T11:37:11.610Z,20.67
2017-05-04T11:38:10.239Z,20.64
2017-05-04T11:39:13.190Z,20.63
2017-05-04T11:40:13.111Z,20.63
2017-05-04T11:41:12.321Z,20.63
2017-05-04T11:42:12.970Z,20.62
2017-05-04T11:43:12.734Z,20.62
2017-05-04T11:44:10.384Z,20.61
2017-05-04T11:45:12.558Z,20.67
2017-05-04T11:46:11.500Z,20.62
2017-05-04T11:47:11.547Z,20.61
2017-05-04T11:48:11.673Z,20.61
2017-05-04T11:49:12.682Z,20.62
2017-05-04T11:50:11.894Z,20.62
2017-05-04T11:51:12.608Z,20.61
2017-05-04T11:52:11.610Z,20.61
2017-05-04T11:53:11.825Z,20.61
2017-05-04T11:54:11.983Z,20.61
2017-05-04T11:55:12.773Z,20.66
2017-05-04T11:56:12.614Z,20.60
2017-05-04T11:57:11.792Z,20.60
2017-05-04T11:58:12.619Z,20.60
2017-05-04T11:59:11.745Z,20.60
2017-05-04T12:00:13.380Z,20.60
2017-05-04T12:01:13.162Z,20.58
2017-05-04T12:02:13.592Z,20.59
2017-05-04T12:03:11.787Z,20.59
2017-05-04T12:04:11.919Z,20.58
2017-05-04T12:05:12.795Z,20.58
2017-05-04T12:06:12.509Z,20.64
2017-05-04T12:07:13.293Z,20.57
2017-05-04T12:08:14.410Z,20.57
2017-05-04T12:09:12.495Z,20.58
2017-05-04T12:10:12.712Z,20.58
2017-05-04T12:11:11.803Z,20.57
2017-05-04T12:12:12.036Z,20.57
2017-05-04T12:13:13.811Z,20.57
2017-05-04T12:14:12.475Z,20.63
2017-05-04T12:15:13.107Z,20.61
2017-05-04T12:16:12.420Z,20.57
2017-05-04T12:17:12.555Z,20.57
2017-05-04T12:18:11.673Z,20.57
2017-05-04T12:19:11.763Z,20.57
2017-05-04T12:20:12.392Z,20.58
2017-05-04T12:21:12.734Z,20.59
2017-05-04T12:22:12.148Z,20.58
2017-05-04T12:23:10.042Z,20.59
2017-05-04T12:24:13.727Z,20.61
2017-05-04T12:25:12.215Z,20.62
2017-05-04T12:26:13.023Z,20.66
2017-05-04T12:27:12.023Z,21.19
2017-05-04T12:28:10.281Z,21.25
2017-05-04T12:29:12.263Z,21.28
2017-05-04T12:30:12.285Z,21.31
2017-05-04T12:31:12.771Z,21.35
2017-05-04T12:32:11.994Z,21.37
2017-05-04T12:33:12.596Z,21.38
2017-05-04T12:34:12.266Z,21.16
2017-05-04T12:35:12.438Z,20.88
2017-05-04T12:36:12.653Z,20.85
2017-05-04T12:37:11.795Z,20.85
2017-05-04T12:38:11.818Z,20.85
2017-05-04T12:39:10.608Z,20.85
2017-05-04T12:40:12.483Z,20.94
2017-05-04T12:41:18.160Z,20.91
2017-05-04T12:42:12.876Z,20.95
2017-05-04T12:43:12.502Z,20.98
2017-05-04T12:44:13.365Z,20.97
2017-05-04T12:45:11.109Z,20.98
2017-05-04T12:46:13.426Z,21.00
2017-05-04T12:47:12.949Z,21.07
2017-05-04T12:48:14.629Z,21.09
2017-05-04T12:49:12.191Z,21.14
2017-05-04T12:50:10.969Z,21.12
2017-05-04T12:51:12.594Z,21.21
2017-05-04T12:52:11.783Z,21.19
2017-05-04T12:53:11.949Z,21.18
2017-05-04T12:54:11.001Z,21.18
2017-05-04T12:55:12.827Z,21.19
2017-05-04T12:56:11.958Z,21.18
2017-05-04T12:57:12.891Z,21.20
2017-05-04T12:58:12.730Z,21.20